sensor_id;sensor_type;location;lat;lon;timestamp;pressure;altitude;pressure_sealevel;temperature;humidity
12594;BME280;6362;50.208;9.182;2022-12-18T00:00:24;101169.44;;;-7.81;100.00
12594;BME280;6362;50.208;9.182;2022-12-18T00:02:49;101164.59;;;-8.11;100.00
12594;BME280;6362;50.208;9.182;2022-12-18T00:05:15;101162.38;;;-8.32;100.00
12594;BME280;6362;50.208;9.182;2022-12-18T00:07:40;101170.84;;;-8.46;100.00
12594;BME280;6362;50.208;9.182;2022-12-18T00:10:05;101171.00;;;-8.68;100.00
12594;BME280;6362;50.208;9.182;2022-12-18T00:12:31;101174.97;;;-8.77;100.00
12594;BME280;6362;50.208;9.182;2022-12-18T00:14:56;101183.66;;;-8.81;100.00
12594;BME280;6362;50.208;9.182;2022-12-18T00:17:21;101177.44;;;-8.77;100.00
12594;BME280;6362;50.208;9.182;2022-12-18T00:19:47;101173.09;;;-8.64;100.00
12594;BME280;6362;50.208;9.182;2022-12-18T00:22:12;101170.34;;;-8.35;100.00
12594;BME280;6362;50.208;9.182;2022-12-18T00:24:37;101177.34;;;-8.31;100.00
12594;BME280;6362;50.208;9.182;2022-12-18T00:27:02;101182.56;;;-8.37;100.00
12594;BME280;6362;50.208;9.182;2022-12-18T00:29:28;101182.38;;;-8.54;100.00
12594;BME280;6362;50.208;9.182;2022-12-18T00:31:53;101181.97;;;-8.66;100.00
12594;BME280;6362;50.208;9.182;2022-12-18T00:34:18;101175.97;;;-8.68;100.00
12594;BME280;6362;50.208;9.182;2022-12-18T00:36:43;101166.44;;;-8.72;100.00
12594;BME280;6362;50.208;9.182;2022-12-18T00:39:09;101168.59;;;-8.75;100.00
12594;BME280;6362;50.208;9.182;2022-12-18T00:41:35;101166.38;;;-8.65;100.00
12594;BME280;6362;50.208;9.182;2022-12-18T00:44:19;101162.91;;;-8.67;100.00
12594;BME280;6362;50.208;9.182;2022-12-18T00:46:45;101180.34;;;-8.65;100.00
12594;BME280;6362;50.208;9.182;2022-12-18T00:49:10;101180.97;;;-8.75;100.00
12594;BME280;6362;50.208;9.182;2022-12-18T00:51:36;101188.44;;;-8.82;100.00
12594;BME280;6362;50.208;9.182;2022-12-18T00:54:01;101188.94;;;-8.77;100.00
12594;BME280;6362;50.208;9.182;2022-12-18T00:56:26;101191.84;;;-8.89;100.00
12594;BME280;6362;50.208;9.182;2022-12-18T00:58:52;101184.50;;;-8.96;100.00
12594;BME280;6362;50.208;9.182;2022-12-18T01:01:17;101189.09;;;-8.99;100.00
12594;BME280;6362;50.208;9.182;2022-12-18T01:03:42;101192.22;;;-8.93;100.00
12594;BME280;6362;50.208;9.182;2022-12-18T01:06:11;101193.22;;;-8.84;100.00
12594;BME280;6362;50.208;9.182;2022-12-18T01:08:37;101201.69;;;-8.59;100.00
12594;BME280;6362;50.208;9.182;2022-12-18T01:11:13;101200.78;;;-8.20;100.00
12594;BME280;6362;50.208;9.182;2022-12-18T01:13:38;101196.59;;;-7.89;100.00
12594;BME280;6362;50.208;9.182;2022-12-18T01:16:04;101198.31;;;-7.72;100.00
12594;BME280;6362;50.208;9.182;2022-12-18T01:18:29;101202.16;;;-7.51;100.00
12594;BME280;6362;50.208;9.182;2022-12-18T01:20:54;101188.22;;;-7.26;100.00
12594;BME280;6362;50.208;9.182;2022-12-18T01:23:20;101189.72;;;-7.20;100.00
12594;BME280;6362;50.208;9.182;2022-12-18T01:25:45;101182.75;;;-7.15;100.00
12594;BME280;6362;50.208;9.182;2022-12-18T01:28:10;101187.34;;;-7.27;100.00
12594;BME280;6362;50.208;9.182;2022-12-18T01:30:36;101188.94;;;-7.43;100.00
12594;BME280;6362;50.208;9.182;2022-12-18T01:33:01;101185.97;;;-7.32;100.00
12594;BME280;6362;50.208;9.182;2022-12-18T01:35:28;101192.44;;;-7.25;100.00
12594;BME280;6362;50.208;9.182;2022-12-18T01:37:54;101197.31;;;-7.34;100.00
12594;BME280;6362;50.208;9.182;2022-12-18T01:40:19;101202.25;;;-7.43;100.00
12594;BME280;6362;50.208;9.182;2022-12-18T01:42:48;101201.59;;;-7.49;100.00
12594;BME280;6362;50.208;9.182;2022-12-18T01:47:41;101212.22;;;-7.66;100.00
12594;BME280;6362;50.208;9.182;2022-12-18T01:50:15;101210.25;;;-7.77;100.00
12594;BME280;6362;50.208;9.182;2022-12-18T01:52:42;101215.38;;;-7.76;100.00
12594;BME280;6362;50.208;9.182;2022-12-18T01:55:09;101206.59;;;-7.81;100.00
12594;BME280;6362;50.208;9.182;2022-12-18T01:57:34;101206.31;;;-7.91;100.00
12594;BME280;6362;50.208;9.182;2022-12-18T02:00:03;101208.88;;;-7.98;100.00
12594;BME280;6362;50.208;9.182;2022-12-18T02:02:29;101217.44;;;-8.03;100.00
12594;BME280;6362;50.208;9.182;2022-12-18T02:04:55;101213.84;;;-7.98;100.00
12594;BME280;6362;50.208;9.182;2022-12-18T02:10:11;101182.19;;;-8.17;100.00
12594;BME280;6362;50.208;9.182;2022-12-18T02:15:43;101179.56;;;-7.86;100.00
12594;BME280;6362;50.208;9.182;2022-12-18T02:18:09;101195.16;;;-7.71;100.00
12594;BME280;6362;50.208;9.182;2022-12-18T02:28:20;101174.59;;;-8.02;100.00
12594;BME280;6362;50.208;9.182;2022-12-18T02:30:47;101171.44;;;-8.01;100.00
12594;BME280;6362;50.208;9.182;2022-12-18T02:33:14;101178.84;;;-8.01;100.00
12594;BME280;6362;50.208;9.182;2022-12-18T02:35:40;101180.50;;;-7.93;100.00
12594;BME280;6362;50.208;9.182;2022-12-18T02:38:06;101186.41;;;-7.68;100.00
12594;BME280;6362;50.208;9.182;2022-12-18T02:40:32;101187.84;;;-7.38;100.00
12594;BME280;6362;50.208;9.182;2022-12-18T02:43:07;101185.47;;;-7.21;100.00
12594;BME280;6362;50.208;9.182;2022-12-18T02:45:33;101189.97;;;-7.01;100.00
12594;BME280;6362;50.208;9.182;2022-12-18T02:47:58;101190.28;;;-6.98;100.00
12594;BME280;6362;50.208;9.182;2022-12-18T02:50:38;101188.88;;;-6.87;100.00
12594;BME280;6362;50.208;9.182;2022-12-18T02:58:16;101186.63;;;-7.01;100.00
12594;BME280;6362;50.208;9.182;2022-12-18T03:00:45;101177.78;;;-7.15;100.00
12594;BME280;6362;50.208;9.182;2022-12-18T03:03:19;101177.72;;;-7.24;100.00
12594;BME280;6362;50.208;9.182;2022-12-18T03:10:44;101179.97;;;-7.59;100.00
12594;BME280;6362;50.208;9.182;2022-12-18T03:13:19;101174.28;;;-7.58;100.00
12594;BME280;6362;50.208;9.182;2022-12-18T03:15:47;101177.81;;;-7.71;100.00
12594;BME280;6362;50.208;9.182;2022-12-18T03:18:18;101178.59;;;-7.80;100.00
12594;BME280;6362;50.208;9.182;2022-12-18T03:20:45;101177.66;;;-7.89;100.00
12594;BME280;6362;50.208;9.182;2022-12-18T03:23:14;101156.78;;;-7.91;100.00
12594;BME280;6362;50.208;9.182;2022-12-18T03:25:41;101175.06;;;-7.82;100.00
12594;BME280;6362;50.208;9.182;2022-12-18T03:28:08;101185.63;;;-7.91;100.00
12594;BME280;6362;50.208;9.182;2022-12-18T03:30:35;101188.19;;;-7.99;100.00
12594;BME280;6362;50.208;9.182;2022-12-18T03:33:05;101189.31;;;-7.88;100.00
12594;BME280;6362;50.208;9.182;2022-12-18T03:35:34;101182.38;;;-7.99;100.00
12594;BME280;6362;50.208;9.182;2022-12-18T03:38:02;101186.69;;;-8.05;100.00
12594;BME280;6362;50.208;9.182;2022-12-18T03:40:30;101180.19;;;-8.12;100.00
12594;BME280;6362;50.208;9.182;2022-12-18T03:43:01;101179.94;;;-8.06;100.00
12594;BME280;6362;50.208;9.182;2022-12-18T03:45:32;101179.31;;;-8.12;100.00
12594;BME280;6362;50.208;9.182;2022-12-18T03:48:00;101179.47;;;-8.11;100.00
12594;BME280;6362;50.208;9.182;2022-12-18T03:50:33;101175.66;;;-8.00;100.00
12594;BME280;6362;50.208;9.182;2022-12-18T03:53:07;101177.16;;;-7.93;100.00
12594;BME280;6362;50.208;9.182;2022-12-18T03:55:34;101181.25;;;-7.78;100.00
12594;BME280;6362;50.208;9.182;2022-12-18T03:58:01;101179.72;;;-7.69;100.00
12594;BME280;6362;50.208;9.182;2022-12-18T04:00:28;101178.84;;;-7.69;100.00
12594;BME280;6362;50.208;9.182;2022-12-18T04:02:55;101186.34;;;-7.61;100.00
12594;BME280;6362;50.208;9.182;2022-12-18T04:05:21;101185.13;;;-7.48;100.00
12594;BME280;6362;50.208;9.182;2022-12-18T04:07:48;101189.69;;;-7.44;100.00
12594;BME280;6362;50.208;9.182;2022-12-18T04:10:15;101182.97;;;-7.61;100.00
12594;BME280;6362;50.208;9.182;2022-12-18T04:12:41;101183.31;;;-7.74;100.00
12594;BME280;6362;50.208;9.182;2022-12-18T04:15:07;101185.38;;;-7.86;100.00
12594;BME280;6362;50.208;9.182;2022-12-18T04:17:32;101187.00;;;-7.86;100.00
12594;BME280;6362;50.208;9.182;2022-12-18T04:19:58;101186.09;;;-7.71;100.00
12594;BME280;6362;50.208;9.182;2022-12-18T04:22:23;101183.94;;;-7.68;100.00
12594;BME280;6362;50.208;9.182;2022-12-18T04:24:48;101183.41;;;-7.81;100.00
12594;BME280;6362;50.208;9.182;2022-12-18T04:27:13;101186.50;;;-7.91;100.00
12594;BME280;6362;50.208;9.182;2022-12-18T04:29:39;101183.94;;;-7.84;100.00
12594;BME280;6362;50.208;9.182;2022-12-18T04:32:04;101184.38;;;-7.88;100.00
12594;BME280;6362;50.208;9.182;2022-12-18T04:34:29;101184.38;;;-7.72;100.00
12594;BME280;6362;50.208;9.182;2022-12-18T04:36:55;101177.97;;;-7.54;100.00
12594;BME280;6362;50.208;9.182;2022-12-18T04:39:21;101175.19;;;-7.33;100.00
12594;BME280;6362;50.208;9.182;2022-12-18T04:41:46;101180.25;;;-7.15;100.00
12594;BME280;6362;50.208;9.182;2022-12-18T04:44:11;101174.50;;;-6.98;100.00
12594;BME280;6362;50.208;9.182;2022-12-18T04:46:36;101163.00;;;-6.98;100.00
12594;BME280;6362;50.208;9.182;2022-12-18T04:49:02;101169.47;;;-6.91;100.00
12594;BME280;6362;50.208;9.182;2022-12-18T04:51:27;101176.38;;;-6.80;100.00
12594;BME280;6362;50.208;9.182;2022-12-18T04:53:53;101182.50;;;-6.76;100.00
12594;BME280;6362;50.208;9.182;2022-12-18T04:56:18;101182.25;;;-6.71;100.00
12594;BME280;6362;50.208;9.182;2022-12-18T04:58:44;101191.19;;;-6.64;100.00
12594;BME280;6362;50.208;9.182;2022-12-18T05:01:09;101183.03;;;-6.54;100.00
12594;BME280;6362;50.208;9.182;2022-12-18T05:03:35;101178.25;;;-6.53;100.00
12594;BME280;6362;50.208;9.182;2022-12-18T05:06:01;101174.72;;;-6.55;100.00
12594;BME280;6362;50.208;9.182;2022-12-18T05:08:26;101176.47;;;-6.54;100.00
12594;BME280;6362;50.208;9.182;2022-12-18T05:11:01;101173.53;;;-6.58;100.00
12594;BME280;6362;50.208;9.182;2022-12-18T05:13:27;101179.06;;;-6.61;100.00
12594;BME280;6362;50.208;9.182;2022-12-18T05:15:52;101178.69;;;-6.48;100.00
12594;BME280;6362;50.208;9.182;2022-12-18T05:18:18;101184.66;;;-6.55;100.00
12594;BME280;6362;50.208;9.182;2022-12-18T05:20:43;101186.69;;;-6.59;100.00
12594;BME280;6362;50.208;9.182;2022-12-18T05:23:08;101181.56;;;-6.61;100.00
12594;BME280;6362;50.208;9.182;2022-12-18T05:25:33;101194.84;;;-6.60;100.00
12594;BME280;6362;50.208;9.182;2022-12-18T05:27:59;101189.47;;;-6.56;100.00
12594;BME280;6362;50.208;9.182;2022-12-18T05:30:24;101185.94;;;-6.58;100.00
12594;BME280;6362;50.208;9.182;2022-12-18T05:32:49;101189.75;;;-6.62;100.00
12594;BME280;6362;50.208;9.182;2022-12-18T05:35:14;101185.78;;;-6.60;100.00
12594;BME280;6362;50.208;9.182;2022-12-18T05:37:40;101182.47;;;-6.52;100.00
12594;BME280;6362;50.208;9.182;2022-12-18T05:40:05;101182.75;;;-6.49;100.00
12594;BME280;6362;50.208;9.182;2022-12-18T05:42:31;101180.72;;;-6.53;100.00
12594;BME280;6362;50.208;9.182;2022-12-18T05:44:56;101178.66;;;-6.57;100.00
12594;BME280;6362;50.208;9.182;2022-12-18T05:47:21;101179.28;;;-6.42;100.00
12594;BME280;6362;50.208;9.182;2022-12-18T05:49:47;101171.97;;;-6.49;100.00
12594;BME280;6362;50.208;9.182;2022-12-18T05:52:12;101173.06;;;-6.63;100.00
12594;BME280;6362;50.208;9.182;2022-12-18T05:54:37;101182.84;;;-6.73;100.00
12594;BME280;6362;50.208;9.182;2022-12-18T05:57:02;101178.16;;;-6.70;100.00
12594;BME280;6362;50.208;9.182;2022-12-18T05:59:28;101181.34;;;-6.80;100.00
12594;BME280;6362;50.208;9.182;2022-12-18T06:01:53;101185.59;;;-6.70;100.00
12594;BME280;6362;50.208;9.182;2022-12-18T06:04:18;101180.03;;;-6.76;100.00
12594;BME280;6362;50.208;9.182;2022-12-18T06:06:43;101186.94;;;-6.65;100.00
12594;BME280;6362;50.208;9.182;2022-12-18T06:09:09;101192.63;;;-6.66;100.00
12594;BME280;6362;50.208;9.182;2022-12-18T06:11:37;101196.75;;;-6.58;100.00
12594;BME280;6362;50.208;9.182;2022-12-18T06:14:03;101195.16;;;-6.57;100.00
12594;BME280;6362;50.208;9.182;2022-12-18T06:16:29;101198.69;;;-6.46;100.00
12594;BME280;6362;50.208;9.182;2022-12-18T06:19:02;101194.03;;;-6.43;100.00
12594;BME280;6362;50.208;9.182;2022-12-18T06:21:28;101199.59;;;-6.37;100.00
12594;BME280;6362;50.208;9.182;2022-12-18T06:23:54;101200.16;;;-6.40;100.00
12594;BME280;6362;50.208;9.182;2022-12-18T06:26:19;101195.81;;;-6.34;100.00
12594;BME280;6362;50.208;9.182;2022-12-18T06:28:44;101203.44;;;-6.32;100.00
12594;BME280;6362;50.208;9.182;2022-12-18T06:31:10;101198.75;;;-6.29;100.00
12594;BME280;6362;50.208;9.182;2022-12-18T06:33:36;101203.88;;;-6.28;100.00
12594;BME280;6362;50.208;9.182;2022-12-18T06:36:03;101204.88;;;-6.34;100.00
12594;BME280;6362;50.208;9.182;2022-12-18T06:38:28;101202.06;;;-6.37;100.00
12594;BME280;6362;50.208;9.182;2022-12-18T06:40:53;101203.09;;;-6.35;100.00
12594;BME280;6362;50.208;9.182;2022-12-18T06:43:19;101208.97;;;-6.35;100.00
12594;BME280;6362;50.208;9.182;2022-12-18T06:45:44;101201.84;;;-6.23;100.00
12594;BME280;6362;50.208;9.182;2022-12-18T06:48:09;101197.47;;;-6.25;100.00
12594;BME280;6362;50.208;9.182;2022-12-18T06:50:35;101195.28;;;-6.22;100.00
12594;BME280;6362;50.208;9.182;2022-12-18T06:53:00;101207.84;;;-6.21;100.00
12594;BME280;6362;50.208;9.182;2022-12-18T06:55:25;101203.47;;;-6.15;100.00
12594;BME280;6362;50.208;9.182;2022-12-18T06:57:50;101207.44;;;-6.17;100.00
12594;BME280;6362;50.208;9.182;2022-12-18T07:00:16;101204.06;;;-6.09;100.00
12594;BME280;6362;50.208;9.182;2022-12-18T07:02:41;101211.53;;;-6.09;100.00
12594;BME280;6362;50.208;9.182;2022-12-18T07:05:06;101206.56;;;-6.00;100.00
12594;BME280;6362;50.208;9.182;2022-12-18T07:07:33;101207.31;;;-6.01;100.00
12594;BME280;6362;50.208;9.182;2022-12-18T07:09:58;101217.38;;;-5.99;100.00
12594;BME280;6362;50.208;9.182;2022-12-18T07:12:24;101214.44;;;-6.04;100.00
12594;BME280;6362;50.208;9.182;2022-12-18T07:14:49;101221.31;;;-6.10;100.00
12594;BME280;6362;50.208;9.182;2022-12-18T07:17:14;101223.31;;;-6.15;100.00
12594;BME280;6362;50.208;9.182;2022-12-18T07:19:39;101229.66;;;-6.10;100.00
12594;BME280;6362;50.208;9.182;2022-12-18T07:22:06;101232.00;;;-6.02;100.00
12594;BME280;6362;50.208;9.182;2022-12-18T07:24:32;101245.59;;;-6.08;100.00
12594;BME280;6362;50.208;9.182;2022-12-18T07:26:57;101250.41;;;-6.09;100.00
12594;BME280;6362;50.208;9.182;2022-12-18T07:29:22;101262.97;;;-6.08;100.00
12594;BME280;6362;50.208;9.182;2022-12-18T07:31:48;101257.56;;;-6.12;100.00
12594;BME280;6362;50.208;9.182;2022-12-18T07:34:14;101256.19;;;-6.17;100.00
12594;BME280;6362;50.208;9.182;2022-12-18T07:36:40;101255.06;;;-6.12;100.00
12594;BME280;6362;50.208;9.182;2022-12-18T07:39:05;101251.22;;;-6.17;100.00
12594;BME280;6362;50.208;9.182;2022-12-18T07:41:31;101261.03;;;-6.19;100.00
12594;BME280;6362;50.208;9.182;2022-12-18T07:43:56;101260.75;;;-6.13;100.00
12594;BME280;6362;50.208;9.182;2022-12-18T07:46:21;101261.63;;;-6.13;100.00
12594;BME280;6362;50.208;9.182;2022-12-18T07:48:47;101255.53;;;-6.08;100.00
12594;BME280;6362;50.208;9.182;2022-12-18T07:51:12;101261.38;;;-6.07;100.00
12594;BME280;6362;50.208;9.182;2022-12-18T07:53:38;101254.63;;;-6.17;100.00
12594;BME280;6362;50.208;9.182;2022-12-18T07:56:05;101253.47;;;-6.12;100.00
12594;BME280;6362;50.208;9.182;2022-12-18T07:58:31;101255.50;;;-6.16;100.00
12594;BME280;6362;50.208;9.182;2022-12-18T08:01:03;101249.69;;;-5.82;100.00
12594;BME280;6362;50.208;9.182;2022-12-18T08:03:29;101249.03;;;-5.20;100.00
12594;BME280;6362;50.208;9.182;2022-12-18T08:05:58;101251.31;;;-4.87;100.00
12594;BME280;6362;50.208;9.182;2022-12-18T08:08:23;101246.56;;;-4.57;100.00
12594;BME280;6362;50.208;9.182;2022-12-18T08:10:48;101257.25;;;-4.50;100.00
12594;BME280;6362;50.208;9.182;2022-12-18T08:13:14;101255.72;;;-4.39;100.00
12594;BME280;6362;50.208;9.182;2022-12-18T08:15:39;101256.66;;;-4.47;100.00
12594;BME280;6362;50.208;9.182;2022-12-18T08:18:04;101258.59;;;-4.62;100.00
12594;BME280;6362;50.208;9.182;2022-12-18T08:20:29;101262.16;;;-3.96;100.00
12594;BME280;6362;50.208;9.182;2022-12-18T08:22:55;101258.03;;;-3.30;100.00
12594;BME280;6362;50.208;9.182;2022-12-18T08:25:20;101261.78;;;-2.18;100.00
12594;BME280;6362;50.208;9.182;2022-12-18T08:27:45;101253.91;;;-2.02;100.00
12594;BME280;6362;50.208;9.182;2022-12-18T08:30:11;101244.13;;;-2.20;100.00
12594;BME280;6362;50.208;9.182;2022-12-18T08:32:36;101239.63;;;-1.32;100.00
12594;BME280;6362;50.208;9.182;2022-12-18T08:35:01;101238.03;;;-2.13;100.00
12594;BME280;6362;50.208;9.182;2022-12-18T08:37:27;101233.97;;;-2.81;100.00
12594;BME280;6362;50.208;9.182;2022-12-18T08:39:52;101224.94;;;-3.38;100.00
12594;BME280;6362;50.208;9.182;2022-12-18T08:42:17;101219.19;;;-3.74;100.00
12594;BME280;6362;50.208;9.182;2022-12-18T08:45:01;101221.56;;;-4.04;100.00
12594;BME280;6362;50.208;9.182;2022-12-18T08:47:27;101216.44;;;-4.33;100.00
12594;BME280;6362;50.208;9.182;2022-12-18T08:49:53;101217.53;;;-4.48;100.00
12594;BME280;6362;50.208;9.182;2022-12-18T08:52:18;101215.22;;;-4.64;100.00
12594;BME280;6362;50.208;9.182;2022-12-18T08:54:44;101218.81;;;-4.79;100.00
12594;BME280;6362;50.208;9.182;2022-12-18T08:57:09;101217.50;;;-4.85;100.00
12594;BME280;6362;50.208;9.182;2022-12-18T08:59:34;101216.22;;;-5.07;100.00
12594;BME280;6362;50.208;9.182;2022-12-18T09:02:00;101220.59;;;-5.05;100.00
12594;BME280;6362;50.208;9.182;2022-12-18T09:04:25;101219.13;;;-5.03;100.00
12594;BME280;6362;50.208;9.182;2022-12-18T09:06:50;101214.59;;;-5.07;100.00
12594;BME280;6362;50.208;9.182;2022-12-18T09:09:16;101210.97;;;-5.19;100.00
12594;BME280;6362;50.208;9.182;2022-12-18T09:11:41;101224.28;;;-5.10;100.00
12594;BME280;6362;50.208;9.182;2022-12-18T09:14:06;101217.69;;;-5.09;100.00
12594;BME280;6362;50.208;9.182;2022-12-18T09:16:32;101210.09;;;-5.19;100.00
12594;BME280;6362;50.208;9.182;2022-12-18T09:18:59;101217.41;;;-5.04;100.00
12594;BME280;6362;50.208;9.182;2022-12-18T09:21:26;101215.31;;;-4.90;100.00
12594;BME280;6362;50.208;9.182;2022-12-18T09:23:52;101226.41;;;-4.87;100.00
12594;BME280;6362;50.208;9.182;2022-12-18T09:26:18;101225.81;;;-4.84;100.00
12594;BME280;6362;50.208;9.182;2022-12-18T09:28:44;101221.00;;;-4.83;100.00
12594;BME280;6362;50.208;9.182;2022-12-18T09:31:10;101225.66;;;-4.68;100.00
12594;BME280;6362;50.208;9.182;2022-12-18T09:33:36;101228.53;;;-4.55;100.00
12594;BME280;6362;50.208;9.182;2022-12-18T09:36:02;101243.44;;;-4.46;100.00
12594;BME280;6362;50.208;9.182;2022-12-18T09:38:28;101243.25;;;-4.39;100.00
12594;BME280;6362;50.208;9.182;2022-12-18T09:40:55;101250.72;;;-4.30;100.00
12594;BME280;6362;50.208;9.182;2022-12-18T09:45:53;101254.50;;;-3.13;100.00
12594;BME280;6362;50.208;9.182;2022-12-18T09:50:48;101251.91;;;0.18;79.30
12594;BME280;6362;50.208;9.182;2022-12-18T09:53:16;101256.47;;;1.40;72.78
12594;BME280;6362;50.208;9.182;2022-12-18T09:55:42;101246.06;;;2.61;65.02
12594;BME280;6362;50.208;9.182;2022-12-18T10:00:35;101240.34;;;4.14;54.60
12594;BME280;6362;50.208;9.182;2022-12-18T10:03:08;101234.69;;;4.63;55.12
12594;BME280;6362;50.208;9.182;2022-12-18T10:05:50;101236.66;;;4.98;51.38
12594;BME280;6362;50.208;9.182;2022-12-18T10:11:13;101250.06;;;5.60;50.54
12594;BME280;6362;50.208;9.182;2022-12-18T10:13:52;101236.38;;;5.73;46.26
12594;BME280;6362;50.208;9.182;2022-12-18T10:26:34;101249.88;;;3.07;47.08
12594;BME280;6362;50.208;9.182;2022-12-18T10:28:59;101246.84;;;3.26;47.21
12594;BME280;6362;50.208;9.182;2022-12-18T10:31:25;101250.34;;;3.70;47.26
12594;BME280;6362;50.208;9.182;2022-12-18T10:33:51;101239.56;;;4.15;44.86
12594;BME280;6362;50.208;9.182;2022-12-18T10:36:16;101239.44;;;3.99;44.56
12594;BME280;6362;50.208;9.182;2022-12-18T10:38:41;101234.94;;;4.68;44.07
12594;BME280;6362;50.208;9.182;2022-12-18T10:43:47;101217.97;;;4.65;43.79
12594;BME280;6362;50.208;9.182;2022-12-18T10:46:14;101215.94;;;4.74;43.09
12594;BME280;6362;50.208;9.182;2022-12-18T10:51:18;101218.97;;;4.98;42.21
12594;BME280;6362;50.208;9.182;2022-12-18T10:53:50;101223.47;;;5.04;42.09
12594;BME280;6362;50.208;9.182;2022-12-18T10:56:16;101215.47;;;4.50;42.81
12594;BME280;6362;50.208;9.182;2022-12-18T10:58:44;101218.06;;;3.79;45.27
12594;BME280;6362;50.208;9.182;2022-12-18T11:01:19;101222.31;;;3.24;44.84
12594;BME280;6362;50.208;9.182;2022-12-18T11:03:46;101214.88;;;2.59;48.29
12594;BME280;6362;50.208;9.182;2022-12-18T11:06:13;101215.69;;;2.19;48.67
12594;BME280;6362;50.208;9.182;2022-12-18T11:08:39;101223.41;;;2.09;48.97
12594;BME280;6362;50.208;9.182;2022-12-18T11:11:07;101221.28;;;1.28;51.65
12594;BME280;6362;50.208;9.182;2022-12-18T11:13:33;101222.72;;;0.30;54.78
12594;BME280;6362;50.208;9.182;2022-12-18T11:15:58;101230.47;;;0.33;56.68
12594;BME280;6362;50.208;9.182;2022-12-18T11:18:32;101230.16;;;0.07;58.49
12594;BME280;6362;50.208;9.182;2022-12-18T11:21:08;101225.78;;;-0.30;59.24
12594;BME280;6362;50.208;9.182;2022-12-18T11:23:34;101229.13;;;-0.41;60.48
12594;BME280;6362;50.208;9.182;2022-12-18T11:26:00;101233.38;;;-0.62;62.25
12594;BME280;6362;50.208;9.182;2022-12-18T11:28:46;101219.72;;;-0.88;65.36
12594;BME280;6362;50.208;9.182;2022-12-18T11:31:23;101220.69;;;-1.18;66.18
12594;BME280;6362;50.208;9.182;2022-12-18T11:33:53;101225.63;;;-0.97;65.99
12594;BME280;6362;50.208;9.182;2022-12-18T11:36:20;101226.78;;;-1.04;66.38
12594;BME280;6362;50.208;9.182;2022-12-18T11:38:47;101221.22;;;-0.68;65.91
12594;BME280;6362;50.208;9.182;2022-12-18T11:41:34;101206.81;;;-0.38;64.93
12594;BME280;6362;50.208;9.182;2022-12-18T11:44:22;101193.59;;;-0.13;61.77
12594;BME280;6362;50.208;9.182;2022-12-18T11:46:51;101184.53;;;0.34;60.94
12594;BME280;6362;50.208;9.182;2022-12-18T11:49:23;101180.03;;;0.18;60.87
12594;BME280;6362;50.208;9.182;2022-12-18T11:51:55;101170.47;;;0.60;61.03
12594;BME280;6362;50.208;9.182;2022-12-18T11:54:23;101174.38;;;0.92;59.18
12594;BME280;6362;50.208;9.182;2022-12-18T11:59:36;101169.06;;;1.99;56.27
12594;BME280;6362;50.208;9.182;2022-12-18T12:17:18;101196.28;;;-0.22;66.31
12594;BME280;6362;50.208;9.182;2022-12-18T12:30:21;101188.41;;;-1.35;75.96
12594;BME280;6362;50.208;9.182;2022-12-18T12:33:14;101184.91;;;-1.27;75.77
12594;BME280;6362;50.208;9.182;2022-12-18T12:35:44;101186.09;;;-1.54;76.26
12594;BME280;6362;50.208;9.182;2022-12-18T12:38:16;101187.59;;;-1.46;77.29
12594;BME280;6362;50.208;9.182;2022-12-18T12:40:53;101177.81;;;-1.53;79.12
12594;BME280;6362;50.208;9.182;2022-12-18T12:45:54;101183.41;;;-1.78;80.60
12594;BME280;6362;50.208;9.182;2022-12-18T12:48:29;101187.38;;;-2.11;82.92
12594;BME280;6362;50.208;9.182;2022-12-18T12:50:57;101200.78;;;-2.20;85.13
12594;BME280;6362;50.208;9.182;2022-12-18T12:53:26;101199.88;;;-2.21;86.82
12594;BME280;6362;50.208;9.182;2022-12-18T12:55:54;101189.88;;;-2.11;86.50
12594;BME280;6362;50.208;9.182;2022-12-18T12:58:43;101179.88;;;-1.90;85.50
12594;BME280;6362;50.208;9.182;2022-12-18T13:03:52;101176.38;;;-1.92;85.87
12594;BME280;6362;50.208;9.182;2022-12-18T13:08:58;101177.41;;;-2.11;87.61
12594;BME280;6362;50.208;9.182;2022-12-18T13:11:37;101160.50;;;-2.23;88.58
12594;BME280;6362;50.208;9.182;2022-12-18T13:14:23;101160.88;;;-2.49;90.72
12594;BME280;6362;50.208;9.182;2022-12-18T13:19:23;101163.84;;;-2.93;96.48
12594;BME280;6362;50.208;9.182;2022-12-18T13:21:53;101165.28;;;-3.16;98.67
12594;BME280;6362;50.208;9.182;2022-12-18T13:24:26;101157.97;;;-3.33;100.00
12594;BME280;6362;50.208;9.182;2022-12-18T13:26:51;101155.81;;;-3.39;100.00
12594;BME280;6362;50.208;9.182;2022-12-18T13:30:02;101154.16;;;-3.48;100.00
12594;BME280;6362;50.208;9.182;2022-12-18T13:32:02;101156.97;;;-3.54;100.00
12594;BME280;6362;50.208;9.182;2022-12-18T13:34:29;101162.31;;;-3.60;100.00
12594;BME280;6362;50.208;9.182;2022-12-18T13:36:56;101167.22;;;-3.70;100.00
12594;BME280;6362;50.208;9.182;2022-12-18T13:39:40;101172.81;;;-3.72;100.00
12594;BME280;6362;50.208;9.182;2022-12-18T13:44:40;101172.28;;;-3.79;100.00
12594;BME280;6362;50.208;9.182;2022-12-18T13:49:50;101160.81;;;-3.95;100.00
12594;BME280;6362;50.208;9.182;2022-12-18T13:52:17;101160.06;;;-3.94;100.00
12594;BME280;6362;50.208;9.182;2022-12-18T13:54:45;101157.47;;;-3.96;100.00
12594;BME280;6362;50.208;9.182;2022-12-18T13:57:32;101157.31;;;-3.98;100.00
12594;BME280;6362;50.208;9.182;2022-12-18T13:59:58;101156.16;;;-4.01;100.00
12594;BME280;6362;50.208;9.182;2022-12-18T14:02:37;101160.53;;;-3.99;100.00
12594;BME280;6362;50.208;9.182;2022-12-18T14:05:02;101163.47;;;-3.94;100.00
12594;BME280;6362;50.208;9.182;2022-12-18T14:07:28;101164.44;;;-3.92;100.00
12594;BME280;6362;50.208;9.182;2022-12-18T14:09:54;101164.19;;;-3.95;100.00
12594;BME280;6362;50.208;9.182;2022-12-18T14:12:22;101167.34;;;-3.87;100.00
12594;BME280;6362;50.208;9.182;2022-12-18T14:17:57;101163.94;;;-3.98;100.00
12594;BME280;6362;50.208;9.182;2022-12-18T14:20:24;101157.06;;;-4.01;100.00
12594;BME280;6362;50.208;9.182;2022-12-18T14:22:50;101157.19;;;-3.99;100.00
12594;BME280;6362;50.208;9.182;2022-12-18T14:25:17;101157.78;;;-4.02;100.00
12594;BME280;6362;50.208;9.182;2022-12-18T14:27:44;101164.78;;;-3.98;100.00
12594;BME280;6362;50.208;9.182;2022-12-18T14:30:43;101155.09;;;-3.94;100.00
12594;BME280;6362;50.208;9.182;2022-12-18T14:35:26;101155.38;;;-3.91;100.00